Pagrindinis puslapis
METAR-TAF:

METAR-TAF

Oro uostai :

Wainwright, Aliaska, Jungtinės Amerikos Valstijos

platuma: 70-38N, ilguma: 159-51W, Aukštis: 12 m

Dabartinis oras

Ataskaita buvo paskelbta 5 valandos ir 17 minutes, ne 14:45 UTC
Vėjas 4 kt iš Šiaurės/Šiaurės Vakarų
Temperatūra -4°C
Drėgmė 80%
Slėgis 679 hPa
Matomumas: 2.0 km
Mažai debesys ne aukštis 1000 ft
Su prošvaistėmis ne aukštis 2400 ft
Apsiniaukę ne aukštis 3800 ft

METAR: PAWI 281445Z 33004KT 1 1/4SM FEW010 BKN024 OVC038 M04/M07 A2006 RMK VIA PHONE

Laikas: 12:02 (20:02 UTC)


TAF: trūkstamas

Orai ataskaitas ir orų prognozės (METAR, TAF).

turimą stotys yra geltonos ir raudonos taškus žemėlapyje.

Perkelti pele per norėdami pamatyti stoties vardą.

Tada spustelėkite, norėdami matyti oro stebėjimo ir prognozės.

Norėdami pakeisti žemėlapį: spustelėkite ant žalios mygtukų su juodo kryžiaus žemyn,; žalią mygtuką su brūkšneliu, jei norite nutolinti; arba žalių rodyklių gretimoms žemėlapius.


METAR-TAF: